• Join FlightAware (Why Join?)
  • Login
  • US Flag 
08:53AM EST


 

Airport Tracker/Info


-or-


 

Live Flight TrackerFlight Track Log ✈ CAL222 ✈ 26-Jul-2014 ✈ RCSS / TSA - RJTT / HND

Flight Track Log - Related Links

Times and Time Zones

All times are in EDT time to prevent confusion due to time zone crossing. See the CAL222 flight status page for this flight to view local times or setup timezone preferences in your user account.

Time Position Orientation Groundspeed Altitude Reporting Facility
EDT Latitude Longitude Course Direction KTS MPH feet Rate Location/Type
06:28AM 25.3984 122.0179 52° Northeast  Level Estimated
06:29AM 25.4804 122.1348 52° Northeast  Level Estimated
06:30AM 25.5623 122.2519 52° Northeast  Level Estimated
06:31AM 25.6442 122.3691 52° Northeast  Level Estimated
06:32AM 25.7259 122.4866 52° Northeast  Level Estimated
06:33AM 25.8075 122.6041 52° Northeast  Level Estimated
06:34AM 25.8891 122.7219 52° Northeast  Level Estimated
06:35AM 25.9705 122.8398 52° Northeast  Level Estimated
06:36AM 26.0519 122.9579 52° Northeast  Level Estimated
06:37AM 26.1331 123.0761 53° Northeast  Level Estimated
06:38AM 26.2143 123.1945 53° Northeast  Level Estimated
06:39AM 26.2954 123.3131 53° Northeast  Level Estimated
06:40AM 26.3763 123.4318 53° Northeast  Level Estimated
06:41AM 26.4572 123.5507 53° Northeast  Level Estimated
06:42AM 26.5380 123.6698 53° Northeast  Level Estimated
06:43AM 26.6186 123.7890 53° Northeast  Level Estimated
06:44AM 26.6992 123.9084 53° Northeast  Level Estimated
06:45AM 26.7797 124.0280 53° Northeast  Level Estimated
06:46AM 26.8601 124.1477 53° Northeast  Level Estimated
06:47AM 26.9403 124.2676 53° Northeast  Level Estimated
06:48AM 27.0205 124.3877 53° Northeast  Level Estimated
06:49AM 27.1005 124.5079 53° Northeast  Level Estimated
06:50AM 27.1805 124.6284 53° Northeast  Level Estimated
06:51AM 27.2604 124.7489 53° Northeast  Level Estimated
06:52AM 27.3401 124.8697 53° Northeast  Level Estimated
06:53AM 27.4198 124.9907 53° Northeast  Level Estimated
06:54AM 27.4993 125.1118 53° Northeast  Level Estimated
06:55AM 27.5788 125.2331 54° Northeast  Level Estimated
06:56AM 27.6581 125.3545 54° Northeast  Level Estimated
06:57AM 27.7373 125.4762 54° Northeast  Level Estimated
06:58AM 27.8165 125.5980 54° Northeast  Level Estimated
06:59AM 27.8955 125.7200 54° Northeast  Level Estimated
07:00AM 27.9744 125.8422 54° Northeast  Level Estimated
07:01AM 28.0532 125.9645 54° Northeast  Level Estimated
07:02AM 28.1319 126.0871 54° Northeast  Level Estimated
07:03AM 28.2105 126.2098 54° Northeast  Level Estimated
07:04AM 28.2889 126.3327 54° Northeast  Level Estimated
07:05AM 28.3673 126.4557 54° Northeast  Level Estimated
07:06AM 28.4456 126.5790 54° Northeast  Level Estimated
07:07AM 28.5237 126.7024 54° Northeast  Level Estimated
07:08AM 28.6017 126.8261 54° Northeast  Level Estimated
07:09AM 28.6796 126.9499 54° Northeast  Level Estimated
07:10AM 28.7575 127.0739 54° Northeast  Level Estimated
07:11AM 28.8351 127.1980 54° Northeast  Level Estimated
07:12AM 28.9127 127.3224 55° Northeast  Level Estimated
07:13AM 28.9902 127.4470 55° Northeast  Level Estimated
07:14AM 29.0675 127.5717 55° Northeast  Level Estimated
07:15AM 29.1448 127.6966 55° Northeast  Level Estimated
07:16AM 29.2219 127.8217 55° Northeast  Level Estimated
07:17AM 29.2989 127.9470 55° Northeast  Level Estimated
07:18AM 29.3758 128.0725 55° Northeast  Level Estimated
07:19AM 29.4525 128.1982 55° Northeast  Level Estimated
07:20AM 29.5292 128.3240 55° Northeast  Level Estimated
07:21AM 29.6057 128.4501 55° Northeast  Level Estimated
07:22AM 29.6821 128.5763 55° Northeast  Level Estimated
07:23AM 29.7584 128.7028 55° Northeast  Level Estimated
07:24AM 29.8346 128.8294 55° Northeast  Level Estimated
07:25AM 29.9106 128.9562 55° Northeast  Level Estimated
07:26AM 29.9866 129.0833 55° Northeast  Level Estimated
07:27AM 30.0624 129.2105 55° Northeast  Level Estimated
07:28AM 30.1381 129.3379 55° Northeast  Level Estimated
07:29AM 30.2136 129.4655 56° Northeast  Level Estimated
07:30AM 30.2890 129.5933 56° Northeast  Level Estimated
07:31AM 30.3643 129.7213 56° Northeast  Level Estimated
07:32AM 30.4395 129.8495 56° Northeast  Level Estimated
07:33AM 30.5146 129.9779 56° Northeast  Level Estimated
07:34AM 30.5895 130.1064 56° Northeast  Level Estimated
07:35AM 30.6643 130.2352 56° Northeast  Level Estimated
07:36AM 30.7390 130.3642 56° Northeast  Level Estimated
07:37AM 30.8136 130.4934 56° Northeast  Level Estimated
07:38AM 30.8880 130.6228 56° Northeast  Level Estimated
07:39AM 30.9623 130.7524 56° Northeast  Level Estimated
07:40AM 31.0365 130.8822 56° Northeast  Level Estimated
07:41AM 31.1105 131.0122 56° Northeast  Level Estimated
07:42AM 31.1844 131.1424 56° Northeast  Level Estimated
07:43AM 31.2582 131.2728 56° Northeast  Level Estimated
07:44AM 31.3318 131.4034 57° Northeast  Level Estimated
07:45AM 31.4053 131.5342 57° Northeast  Level Estimated
07:46AM 31.4787 131.6652 57° Northeast  Level Estimated
07:47AM 31.5520 131.7964 57° Northeast  Level Estimated
07:48AM 31.6251 131.9278 57° Northeast  Level Estimated
07:49AM 31.6980 132.0594 57° Northeast  Level Estimated
07:50AM 31.7709 132.1913 57° Northeast  Level Estimated
07:51AM 31.8436 132.3233 57° Northeast  Level Estimated
07:52AM 31.9161 132.4556 57° Northeast  Level Estimated
07:53AM 31.9886 132.5880 57° Northeast  Level Estimated
07:54AM 32.0609 132.7207 57° Northeast  Level Estimated
07:55AM 32.1330 132.8536 57° Northeast  Level Estimated
07:56AM 32.2050 132.9867 57° Northeast  Level Estimated
07:57AM 32.2769 133.1200 57° Northeast  Level Estimated
07:58AM 32.3486 133.2535 58° Northeast  Level Estimated
07:59AM 32.4202 133.3872 58° Northeast  Level Estimated
08:00AM 32.4917 133.5212 58° Northeast  Level Estimated
08:01AM 32.5630 133.6553 58° Northeast  Level Estimated
08:02AM 32.6342 133.7897 58° Northeast  Level Estimated
08:03AM 32.7052 133.9242 58° Northeast  Level Estimated
08:04AM 32.7761 134.0590 58° Northeast  Level Estimated
08:05AM 32.8468 134.1940 58° Northeast  Level Estimated
08:06AM 32.9174 134.3293 58° Northeast  Level Estimated
08:07AM 32.9878 134.4647 58° Northeast  Level Estimated
08:08AM 33.0581 134.6003 58° Northeast  Level Estimated
08:09AM 33.1283 134.7362 58° Northeast  Level Estimated
08:10AM 33.1983 134.8723 58° Northeast  Level Estimated
08:11AM 33.2681 135.0086 58° Northeast  Level Estimated
08:12AM 33.3378 135.1451 59° Northeast  Level Estimated
08:13AM 33.4074 135.2818 59° Northeast  Level Estimated
08:14AM 33.4768 135.4188 59° Northeast  Level Estimated
08:15AM 33.5461 135.5560 59° Northeast  Level Estimated
08:16AM 33.6152 135.6934 59° Northeast  Level Estimated
08:17AM 33.6841 135.8310 59° Northeast  Level Estimated
08:18AM 33.7529 135.9688 59° Northeast  Level Estimated
08:19AM 33.8216 136.1069 59° Northeast  Level Estimated
08:20AM 33.8900 136.2452 59° Northeast  Level Estimated
08:21AM 33.9584 136.3837 59° Northeast  Level Estimated
08:22AM 34.0266 136.5224 59° Northeast  Level Estimated
08:23AM 34.0946 136.6613 59° Northeast  Level Estimated
08:24AM 34.1625 136.8005 59° Northeast  Level Estimated
08:25AM 34.2302 136.9399 60° Northeast  Level Estimated
08:26AM 34.2977 137.0795 60° Northeast  Level Estimated
08:26AM 33.2580 135.9252 76° East 466 536 39,000  Level FlightAware ADS-B
08:26AM 33.2824 136.0385 76° East 465 535 39,000  Level FlightAware ADS-B
08:27AM 33.3049 136.1433 76° East 465 535 39,000  Level FlightAware ADS-B
08:28AM 33.3454 136.3332 76° East 466 536 39,000  Level FlightAware ADS-B
08:29AM 33.3652 136.4269 76° East 467 537 39,000  Level FlightAware ADS-B
08:30AM 33.3885 136.5374 76° East 468 539 39,000  Level FlightAware ADS-B
08:31AM 33.4103 136.6411 76° East 468 539 39,000  Level FlightAware ADS-B
08:31AM 33.4300 136.7354 76° East 469 540 39,000  Level FlightAware ADS-B
08:32AM 33.4943 136.8621 36° Northeast 455 524 39,000  Level FlightAware ADS-B
08:32AM 33.5372 136.8878 20° North 459 528 39,000  Level FlightAware ADS-B
08:33AM 33.6213 136.9129 13° North 460 529 39,000  Level FlightAware ADS-B
08:34AM 33.7036 136.9364 14° North 462 532 39,000  Level FlightAware ADS-B
08:35AM 33.7891 136.9611 14° North 461 531 39,000  Level FlightAware ADS-B
08:35AM 33.8656 136.9945 33° Northeast 460 529 39,000  Level FlightAware ADS-B
08:36AM 33.9625 137.0990 44° Northeast 451 519 39,000 -180 Level FlightAware ADS-B
08:37AM 34.0216 137.1657 43° Northeast 449 517 38,700 -720 Descending FlightAware ADS-B
08:37AM 34.0494 137.2041 57° Northeast 443 510 38,300 -1,080 Descending FlightAware ADS-B
08:38AM 34.0660 137.2469 71° East 452 520 38,000 -840 Descending FlightAware ADS-B
08:38AM 34.0913 137.3470 74° East 460 529 37,500 -780 Descending FlightAware ADS-B
08:39AM 34.1156 137.4450 73° East 465 535 37,000 -720 Descending FlightAware ADS-B
08:39AM 34.1408 137.5437 74° East 464 534 36,600 -720 Descending FlightAware ADS-B
08:40AM 34.1664 137.6422 74° East 466 536 36,100 -840 Descending FlightAware ADS-B
08:41AM 34.1924 137.7438 74° East 470 541 35,500 -900 Descending FlightAware ADS-B
08:42AM 34.2314 137.8954 74° East 473 544 34,600 -960 Descending FlightAware ADS-B
08:43AM 34.2579 137.9984 74° East 475 547 33,900 -1,680 Descending FlightAware ADS-B
08:43AM 34.2835 138.1000 74° East 479 551 32,400 -2,160 Descending FlightAware ADS-B
08:44AM 34.3088 138.2001 76° East 469 540 31,100 -1,920 Descending FlightAware ADS-B
08:44AM 34.3134 138.2521 90° East 464 534 30,500 -1,380 Descending FlightAware ADS-B
08:45AM 34.3104 138.3537 88° East 451 519 29,700 -1,200 Descending FlightAware ADS-B
08:45AM 34.3181 138.4013 74° East 450 518 29,300 -1,140 Descending FlightAware ADS-B
08:46AM 34.3445 138.4952 69° East 453 521 28,600 -1,140 Descending FlightAware ADS-B
08:46AM 34.3776 138.5932 69° East 453 521 27,800 -1,200 Descending FlightAware ADS-B
08:47AM 34.4072 138.6841 69° East 451 519 27,000 -1,200 Descending FlightAware ADS-B
08:48AM 34.4381 138.7809 69° East 447 514 26,200 -1,500 Descending FlightAware ADS-B
08:48AM 34.4675 138.8734 70° East 439 505 25,000 -1,440 Descending FlightAware ADS-B
08:49AM 34.4957 138.9624 69° East 420 483 24,300 -1,680 Descending FlightAware ADS-B
08:50AM 34.5373 139.0937 69° East 418 481 22,200 -1,740 Descending FlightAware ADS-B
08:51AM 34.5737 139.2096 69° East 405 466 20,700 -1,560 Descending FlightAware ADS-B (EGKA / ESH)
08:52AM 34.6034 139.3045 69° East 400 460 19,400 -1,680 Descending FlightAware ADS-B (EGKA / ESH)
08:53AM 34.6225 139.3654 69° East 392 451 18,600 -1,620 Descending FlightAware ADS-B (EGKA / ESH)
08:53AM 34.6417 139.4280 70° East 384 442 17,800 -1,680 Descending FlightAware ADS-B (EGKA / ESH)
08:54AM 34.6686 139.5180 71° East 376 433 16,500 -1,740 Descending FlightAware ADS-B (EGKA / ESH)
08:54AM 34.6857 139.5764 70° East 372 428 15,700 -2,040 Descending FlightAware ADS-B (EGKA / ESH)
08:55AM 34.7015 139.6288 71° East 365 420 15,000 -1,380 Descending FlightAware ADS-B
08:55AM 34.7118 139.6635 70° East 367 422 14,700 -1,260 Descending FlightAware ADS-B (EGKA / ESH)
08:55AM 34.7243 139.7051 71° East 361 415 14,200 -1,260 Descending FlightAware ADS-B
08:56AM 34.7366 139.7463 70° East 361 415 13,800 -1,080 Descending FlightAware ADS-B (EGKA / ESH)
08:56AM 34.7517 139.7971 71° East 357 411 12,900 -1,200 Descending FlightAware ADS-B (EGKA / ESH)
08:57AM 34.7867 139.9190 71° East 351 404 12,000 -1,200 Descending FlightAware ADS-B (EGKA / ESH)
08:58AM 34.8104 140.0006 71° East 348 400 11,100 -1,020 Descending FlightAware ADS-B (EGKA / ESH)
08:59AM 34.8330 140.0783 71° East 325 374 10,500 -720 Descending FlightAware ADS-B (EGKA / ESH)
08:59AM 34.8493 140.1350 71° East 307 353 10,200 -840 Descending FlightAware ADS-B (EGKA / ESH)
08:59AM 34.8548 140.1501 53° Northeast 303 349 9,900 -1,440 Descending FlightAware ADS-B (EGKA / ESH)
09:00AM 34.8757 140.1730 28° Northeast 298 343 9,500 -960 Descending FlightAware ADS-B (EGKA / ESH)
09:00AM 34.8903 140.1788 15° North 288 331 9,400 -840 Descending FlightAware ADS-B (EGKA / ESH)
09:00AM 34.9212 140.1883 15° North 270 311 9,200 -420 Descending FlightAware ADS-B
09:01AM 34.9336 140.1921 14° North 273 314 9,200 -360 Level FlightAware ADS-B (EGKA / ESH)
09:01AM 34.9693 140.2029 14° North 274 315 8,900 -600 Descending FlightAware ADS-B (EGKA / ESH)
09:01AM 34.9882 140.2086 14° North 274 315 8,800 -540 Descending FlightAware ADS-B (EGKA / ESH)
09:02AM 35.0257 140.2200 14° North 273 314 8,500 -540 Descending FlightAware ADS-B (EGKA / ESH)
09:02AM 35.0434 140.2254 14° North 273 314 8,400 -600 Descending FlightAware ADS-B (EGKA / ESH)
09:02AM 35.0696 140.2334 15° North 267 307 8,300 -420 Descending FlightAware ADS-B
09:03AM 35.0799 140.2365 13° North 275 316 8,200 -540 Descending FlightAware ADS-B (EGKA / ESH)
09:03AM 35.0995 140.2379 356° North 274 315 8,000 -600 Descending FlightAware ADS-B (EGKA / ESH)
09:03AM 35.1188 140.2359 355° North 269 310 7,900 -420 Descending FlightAware ADS-B (EGKA / ESH)
09:03AM 35.1370 140.2343 356° North 268 308 7,800 -420 Descending FlightAware ADS-B (EGKA / ESH)
09:04AM 35.1736 140.2314 356° North 269 310 7,600 -540 Descending FlightAware ADS-B (EGKA / ESH)
09:04AM 35.2114 140.2286 356° North 269 310 7,300 -540 Descending FlightAware ADS-B (EGKA / ESH)
09:05AM 35.2256 140.2275 356° North 267 307 7,200 -180 Descending FlightAware ADS-B (EGKA / ESH)
09:05AM 35.2669 140.2243 356° North 267 307 7,200  Level FlightAware ADS-B (EGKA / ESH)
09:05AM 35.2856 140.2229 356° North 268 308 7,200  Level FlightAware ADS-B (EGKA / ESH)
09:06AM 35.2927 140.2223 357° North 267 307 7,200  Level FlightAware ADS-B (RJTF)
09:06AM 35.3056 140.2214 356° North 267 307 7,200  Level FlightAware ADS-B (EGKA / ESH)
09:06AM 35.3233 140.2200 357° North 269 310 7,200  Level FlightAware ADS-B (EGKA / ESH)
09:06AM 35.3404 140.2187 357° North 271 312 7,200  Level FlightAware ADS-B (EGKA / ESH)
09:06AM 35.3516 140.2179 357° North 271 312 7,200  Level FlightAware ADS-B (RJTF)
09:07AM 35.3748 140.2162 357° North 275 316 7,200  Level FlightAware ADS-B (RJTF)
09:07AM 35.3802 140.2158 357° North 276 318 7,200  Level FlightAware ADS-B (EGKA / ESH)
09:07AM 35.3985 140.2144 357° North 272 313 7,200  Level FlightAware ADS-B (EGKA / ESH)
09:07AM 35.4167 140.2130 356° North 272 313 7,200  Level FlightAware ADS-B (EGKA / ESH)
09:07AM 35.4268 140.2123 357° North 270 311 7,200  Level FlightAware ADS-B (RJTF)
09:07AM 35.4373 140.2115 356° North 272 313 7,200  Level FlightAware ADS-B (EGKA / ESH)
09:07AM 35.4440 140.2110 357° North 273 314 7,200  Level FlightAware ADS-B (RJTF)
09:08AM 35.4756 140.2086 357° North 272 313 7,200  Level FlightAware ADS-B (EGKA / ESH)
09:08AM 35.4762 140.2085 357° North 271 312 7,200  Level FlightAware ADS-B (RJTF)
09:08AM 35.4929 140.2073 356° North 271 312 7,200  Level FlightAware ADS-B (EGKA / ESH)
09:08AM 35.5034 140.2065 357° North 272 313 7,200  Level FlightAware ADS-B (RJTF)
09:08AM 35.5231 140.2050 357° North 272 313 7,200  Level FlightAware ADS-B (RJTF)
09:09AM 35.5309 140.2041 353° North 270 311 7,200  Level FlightAware ADS-B (EGKA / ESH)
09:09AM 35.5504 140.1982 343° North 263 303 7,200  Level FlightAware ADS-B (EGKA / ESH)
09:09AM 35.5519 140.1976 344° North 262 302 7,200 -420 Level FlightAware ADS-B (RJTF)
09:09AM 35.5677 140.1920 344° North 253 291 7,100 -600 Descending FlightAware ADS-B (EGKA / ESH)
09:09AM 35.5723 140.1903 344° North 253 291 7,000 -900 Descending FlightAware ADS-B (RJTF)
09:09AM 35.5832 140.1847 328° Northwest 247 284 6,900 -720 Descending FlightAware ADS-B (EGKA / ESH)
09:09AM 35.5813 140.1861 333° Northwest 248 285 6,900 -420 Level FlightAware ADS-B (RJTF)
09:10AM 35.5943 140.1691 300° West 237 273 6,800 -480 Descending FlightAware ADS-B (EGKA / ESH)
09:10AM 35.5978 140.1607 298° West 233 268 6,700 -840 Descending FlightAware ADS-B (RJTF)
09:10AM 35.6017 140.1515 297° West 232 267 6,600 -1,020 Descending FlightAware ADS-B (EGKA / ESH)
09:10AM 35.6064 140.1331 278° West 228 262 6,400 -1,080 Descending FlightAware ADS-B (EGKA / ESH)
09:10AM 35.6065 140.1304 277° West 227 261 6,300 -900 Descending FlightAware ADS-B (RJTF)
09:10AM 35.6065 140.1279 269° West 226 260 6,300 -480 Level FlightAware ADS-B (RJTF)
09:10AM 35.6060 140.1148 268° West 222 255 6,200 -840 Descending FlightAware ADS-B (EGKA / ESH)
09:11AM 35.6060 140.0948 270° West 213 245 6,000 -720 Descending FlightAware ADS-B (EGKA / ESH)
09:11AM 35.6059 140.0621 269° West 195 224 5,700 -900 Descending FlightAware ADS-B (EGKA / ESH)
09:12AM 35.6055 140.0289 269° West 193 222 5,100 -1,200 Descending FlightAware ADS-B (EGKA / ESH)
09:12AM 35.6052 140.0112 269° West 192 221 4,800 -960 Descending FlightAware ADS-B (EGKA / ESH)
09:12AM 35.6052 140.0091 268° West 225 259 4,800 -1,020 Level FlightAware ADS-B (RJTF)
09:12AM 35.6049 139.9790 269° West 191 220 4,300 -1,200 Descending FlightAware ADS-B (EGKA / ESH)
09:13AM 35.6047 139.9639 269° West 183 211 4,000 -1,440 Descending FlightAware ADS-B (EGKA / ESH)
09:13AM 35.6046 139.9479 269° West 183 211 3,600 -1,620 Descending FlightAware ADS-B (EGKA / ESH)
09:13AM 35.6045 139.9316 270° West 185 213 3,200 -1,560 Descending FlightAware ADS-B (EGKA / ESH)
09:13AM 35.6045 139.9212 270° West 183 211 2,900 -1,500 Descending FlightAware ADS-B (RJTF)
09:14AM 35.6045 139.9017 270° West 167 192 2,500 -1,080 Descending FlightAware ADS-B (EGKA / ESH)
09:14AM 35.6044 139.8811 270° West 142 163 2,100 -1,020 Descending FlightAware ADS-B (RJTF)
09:14AM 35.6042 139.8665 270° West 145 167 1,800 -1,080 Descending FlightAware ADS-B (RJTF)
09:14AM 35.6042 139.8648 269° West 146 168 1,800 -1,200 Level FlightAware ADS-B (EGKA / ESH)
09:14AM 35.6041 139.8539 270° West 147 169 1,500 -1,140 Descending FlightAware ADS-B (RJTF)
09:15AM 35.6040 139.8510 269° West 147 169 1,500 -420 Level FlightAware ADS-B (EGKA / ESH)
09:15AM 35.6040 139.8422 270° West 146 168 1,400 -840 Descending FlightAware ADS-B (RJTF)
09:15AM 35.6039 139.8391 269° West 145 167 1,300 -780 Descending FlightAware ADS-B (EGKA / ESH)
09:15AM 35.6038 139.8364 267° West 145 167 1,300 -840 Level FlightAware ADS-B (RJTF)
09:15AM 35.6021 139.8264 254° West 141 162 1,100 -960 Descending FlightAware ADS-B (EGKA / ESH)
09:15AM 35.5984 139.8157 245° Southwest 131 151 900 -720 Descending FlightAware ADS-B (EGKA / ESH)
09:16AM 35.5957 139.8094 239° Southwest 124 143 800 -480 Descending FlightAware ADS-B (RJTF)
09:16AM 35.5903 139.8003 232° Southwest 122 140 700 -600 Descending FlightAware ADS-B (EGKA / ESH)
09:16AM 35.5803 139.7883 213° Southwest 122 140 400 -720 Descending FlightAware ADS-B (EGKA / ESH)
09:16AM 35.5654 139.7753 217° Southwest 121 139 200 -840 Descending FlightAware ADS-B